Time,TemperatureF,DewpointF,PressureIn,WindDirection,WindDirectionDegrees,WindSpeedMPH,WindSpeedGustMPH,Humidity,HourlyPrecipIn,Conditions,Clouds,dailyrainin,SoftwareType,DateUTC
2013-06-30 00:02:00,79.0,75.0,29.87,ESE,120,0.0,0.0,87,0.00,,,2.50,,2013-06-30 04:02:00,
2013-06-30 00:12:00,79.0,75.0,29.87,SW,215,3.0,5.0,88,0.00,,,2.50,,2013-06-30 04:12:00,
2013-06-30 00:22:00,79.0,75.0,29.87,South,176,1.0,2.0,88,0.00,,,1.50,,2013-06-30 04:22:00,
2013-06-30 00:33:00,79.0,75.0,29.87,South,190,3.0,3.0,87,0.00,,,1.50,,2013-06-30 04:33:00,
2013-06-30 00:43:00,79.0,75.0,29.87,South,183,0.0,0.0,87,0.00,,,1.50,,2013-06-30 04:43:00,
2013-06-30 00:53:00,79.0,75.0,29.87,SSW,193,2.0,2.0,87,0.00,,,1.50,,2013-06-30 04:53:00,
2013-06-30 01:02:00,79.0,75.0,29.87,SSE,166,1.0,1.0,87,0.00,,,1.50,,2013-06-30 05:02:00,
2013-06-30 01:12:00,79.0,75.0,29.87,SSE,156,2.0,2.0,87,0.00,,,1.50,,2013-06-30 05:12:00,
2013-06-30 01:22:00,79.0,74.0,29.86,SW,217,2.0,3.0,86,0.00,,,1.50,,2013-06-30 05:22:00,
2013-06-30 01:34:00,79.0,74.0,29.86,South,180,2.0,2.0,86,0.00,,,1.50,,2013-06-30 05:34:00,
2013-06-30 01:43:00,79.0,74.0,29.86,SW,214,2.0,2.0,86,0.00,,,1.50,,2013-06-30 05:43:00,
2013-06-30 01:53:00,79.0,74.0,29.86,SSW,203,3.0,3.0,85,0.00,,,1.50,,2013-06-30 05:53:00,
2013-06-30 02:02:00,79.0,74.0,29.85,SSW,210,2.0,2.0,84,0.00,,,1.50,,2013-06-30 06:02:00,
2013-06-30 02:23:00,79.0,74.0,29.85,SSW,208,2.0,0.0,85,0.00,,,1.50,,2013-06-30 06:23:00,
2013-06-30 02:34:00,78.0,73.0,29.85,South,169,2.0,2.0,85,0.00,,,1.50,,2013-06-30 06:34:00,
2013-06-30 02:43:00,78.0,73.0,29.85,SE,132,0.0,0.0,85,0.00,,,1.50,,2013-06-30 06:43:00,
2013-06-30 02:53:00,79.0,74.0,29.85,SW,236,0.0,0.0,85,0.00,,,1.50,,2013-06-30 06:53:00,
2013-06-30 03:02:00,78.0,73.0,29.85,SW,226,0.0,3.0,86,0.00,,,1.50,,2013-06-30 07:02:00,
2013-06-30 03:12:00,78.0,74.0,29.85,South,183,2.0,2.0,87,0.00,,,1.50,,2013-06-30 07:12:00,
2013-06-30 03:22:00,78.0,73.0,29.84,SW,235,3.0,4.0,86,0.00,,,1.50,,2013-06-30 07:22:00,
2013-06-30 03:33:00,79.0,74.0,29.84,SSW,197,3.0,3.0,86,0.00,,,1.50,,2013-06-30 07:33:00,
2013-06-30 03:44:00,78.0,73.0,29.84,SW,214,6.0,6.0,85,0.00,,,1.50,,2013-06-30 07:44:00,
2013-06-30 03:53:00,79.0,74.0,29.84,SW,217,1.0,0.0,85,0.00,,,1.50,,2013-06-30 07:53:00,
2013-06-30 04:02:00,78.0,73.0,29.84,SSW,194,0.0,0.0,86,0.00,,,1.50,,2013-06-30 08:02:00,
2013-06-30 04:12:00,78.0,73.0,29.84,SW,226,3.0,3.0,85,0.00,,,1.50,,2013-06-30 08:12:00,
2013-06-30 04:22:00,78.0,73.0,29.85,SSW,211,2.0,2.0,86,0.00,,,1.50,,2013-06-30 08:22:00,
2013-06-30 04:33:00,78.0,73.0,29.85,West,263,0.0,0.0,86,0.00,,,1.50,,2013-06-30 08:33:00,
2013-06-30 04:42:00,78.0,74.0,29.84,SSW,204,0.0,2.0,87,0.00,,,1.50,,2013-06-30 08:42:00,
2013-06-30 04:53:00,78.0,74.0,29.84,SW,215,1.0,0.0,87,0.00,,,1.50,,2013-06-30 08:53:00,
2013-06-30 05:01:00,77.0,73.0,29.84,SW,229,0.0,0.0,88,0.00,,,1.50,,2013-06-30 09:01:00,
2013-06-30 05:12:00,77.0,73.0,29.83,WSW,245,0.0,0.0,88,0.00,,,1.50,,2013-06-30 09:12:00,
2013-06-30 05:23:00,77.0,73.0,29.83,South,179,2.0,2.0,88,0.00,,,1.50,,2013-06-30 09:23:00,
2013-06-30 05:34:00,77.0,73.0,29.84,South,188,3.0,3.0,88,0.00,,,1.50,,2013-06-30 09:34:00,
2013-06-30 05:43:00,77.0,73.0,29.84,SW,215,2.0,3.0,88,0.00,,,1.50,,2013-06-30 09:43:00,
2013-06-30 05:53:00,77.0,73.0,29.85,SSW,212,2.0,3.0,88,0.00,,,1.50,,2013-06-30 09:53:00,
2013-06-30 06:02:00,78.0,74.0,29.85,SSW,207,2.0,2.0,88,0.00,,,1.50,,2013-06-30 10:02:00,
2013-06-30 06:11:00,78.0,74.0,29.85,SSW,204,2.0,3.0,88,0.00,,,1.50,,2013-06-30 10:11:00,
2013-06-30 06:22:00,78.0,74.0,29.85,SW,217,1.0,0.0,88,0.00,,,1.50,,2013-06-30 10:22:00,
2013-06-30 06:33:00,78.0,74.0,29.85,SW,231,2.0,4.0,88,0.00,,,1.50,,2013-06-30 10:33:00,
2013-06-30 06:42:00,78.0,74.0,29.85,SSW,198,3.0,0.0,88,0.00,,,1.50,,2013-06-30 10:42:00,
2013-06-30 06:53:00,78.0,74.0,29.85,SSW,195,2.0,3.0,88,0.00,,,1.50,,2013-06-30 10:53:00,
2013-06-30 07:02:00,78.0,74.0,29.85,SW,229,4.0,0.0,88,0.00,,,1.50,,2013-06-30 11:02:00,
2013-06-30 07:11:00,78.0,74.0,29.85,SW,221,1.0,4.0,88,0.00,,,1.50,,2013-06-30 11:11:00,
2013-06-30 07:22:00,78.0,74.0,29.86,SW,231,1.0,3.0,88,0.00,,,1.50,,2013-06-30 11:22:00,
2013-06-30 07:33:00,78.0,74.0,29.86,SSW,200,2.0,0.0,88,0.00,,,1.50,,2013-06-30 11:33:00,
2013-06-30 07:43:00,79.0,75.0,29.86,South,186,1.0,0.0,88,0.00,,,1.50,,2013-06-30 11:43:00,
2013-06-30 07:53:00,79.0,75.0,29.87,WSW,250,4.0,4.0,88,0.00,,,1.50,,2013-06-30 11:53:00,
2013-06-30 08:02:00,79.0,75.0,29.87,SW,232,3.0,4.0,87,0.00,,,1.50,,2013-06-30 12:02:00,
2013-06-30 08:11:00,80.0,75.0,29.87,WSW,243,4.0,6.0,86,0.00,,,1.50,,2013-06-30 12:11:00,
2013-06-30 08:24:00,80.0,75.0,29.87,SSW,204,6.0,7.0,84,0.00,,,1.50,,2013-06-30 12:24:00,
2013-06-30 08:33:00,81.0,75.0,29.87,SW,215,4.0,5.0,83,0.00,,,1.50,,2013-06-30 12:33:00,
2013-06-30 08:43:00,81.0,75.0,29.88,West,274,5.0,5.0,83,0.00,,,1.50,,2013-06-30 12:43:00,
2013-06-30 08:52:00,82.0,76.0,29.88,South,183,5.0,5.0,82,0.00,,,1.50,,2013-06-30 12:52:00,
2013-06-30 09:02:00,82.0,75.0,29.88,SSW,193,6.0,6.0,80,0.00,,,1.50,,2013-06-30 13:02:00,
2013-06-30 09:12:00,82.0,74.0,29.88,WSW,242,5.0,8.0,78,0.00,,,1.50,,2013-06-30 13:12:00,
2013-06-30 09:22:00,83.0,75.0,29.88,SSW,203,10.0,13.0,77,0.00,,,1.50,,2013-06-30 13:22:00,
2013-06-30 09:34:00,83.0,75.0,29.87,South,176,7.0,8.0,76,0.00,,,1.50,,2013-06-30 13:34:00,
2013-06-30 09:43:00,83.0,75.0,29.88,SSW,193,8.0,8.0,76,0.00,,,1.50,,2013-06-30 13:43:00,
2013-06-30 09:53:00,84.0,75.0,29.88,SW,228,7.0,7.0,74,0.00,,,1.50,,2013-06-30 13:53:00,
2013-06-30 10:02:00,84.0,74.0,29.88,SW,217,8.0,8.0,73,0.00,,,1.50,,2013-06-30 14:02:00,
2013-06-30 10:11:00,84.0,72.0,29.88,SW,221,8.0,10.0,68,0.00,,,1.50,,2013-06-30 14:11:00,
2013-06-30 10:22:00,85.0,72.0,29.88,SSW,193,7.0,9.0,66,0.00,,,1.50,,2013-06-30 14:22:00,
2013-06-30 10:33:00,85.0,72.0,29.88,SW,215,8.0,8.0,66,0.00,,,1.50,,2013-06-30 14:33:00,
2013-06-30 10:44:00,86.0,72.0,29.88,South,181,9.0,9.0,64,0.00,,,1.50,,2013-06-30 14:44:00,
2013-06-30 10:52:00,86.0,73.0,29.88,WSW,239,8.0,8.0,65,0.00,,,1.50,,2013-06-30 14:52:00,
2013-06-30 11:02:00,86.0,72.0,29.88,South,183,8.0,10.0,63,0.00,,,1.50,,2013-06-30 15:02:00,
2013-06-30 11:12:00,86.0,73.0,29.88,SSW,212,5.0,8.0,66,0.00,,,1.50,,2013-06-30 15:12:00,
2013-06-30 11:23:00,87.0,73.0,29.88,SSW,197,8.0,10.0,64,0.00,,,1.50,,2013-06-30 15:23:00,
2013-06-30 11:34:00,87.0,73.0,29.88,SSW,205,7.0,7.0,63,0.00,,,1.50,,2013-06-30 15:34:00,
2013-06-30 11:44:00,87.0,71.0,29.88,South,181,10.0,10.0,60,0.00,,,1.50,,2013-06-30 15:44:00,
2013-06-30 11:53:00,88.0,72.0,29.88,WSW,238,5.0,5.0,60,0.00,,,1.50,,2013-06-30 15:53:00,
2013-06-30 12:01:00,87.0,72.0,29.88,SSW,200,8.0,11.0,62,0.00,,,1.50,,2013-06-30 16:01:00,
2013-06-30 12:11:00,86.0,71.0,29.88,South,191,11.0,16.0,62,0.00,,,1.50,,2013-06-30 16:11:00,
2013-06-30 12:21:00,84.0,71.0,29.88,SW,218,8.0,9.0,65,0.00,,,1.50,,2013-06-30 16:21:00,
2013-06-30 12:34:00,84.0,74.0,29.88,South,183,7.0,7.0,71,0.00,,,1.50,,2013-06-30 16:34:00,
2013-06-30 12:44:00,85.0,73.0,29.89,South,169,9.0,9.0,68,0.00,,,1.50,,2013-06-30 16:44:00,
2013-06-30 12:53:00,85.0,75.0,29.88,SSW,201,10.0,11.0,71,0.00,,,1.50,,2013-06-30 16:53:00,
2013-06-30 13:02:00,85.0,76.0,29.88,SW,228,8.0,8.0,75,0.00,,,1.50,,2013-06-30 17:02:00,
2013-06-30 13:11:00,85.0,75.0,29.88,SSW,197,5.0,5.0,71,0.00,,,1.50,,2013-06-30 17:11:00,
2013-06-30 13:23:00,86.0,75.0,29.88,SSW,204,5.0,5.0,71,0.00,,,1.50,,2013-06-30 17:23:00,
2013-06-30 13:34:00,85.0,74.0,29.88,SSE,150,5.0,5.0,70,0.00,,,1.50,,2013-06-30 17:34:00,
2013-06-30 13:43:00,85.0,74.0,29.87,SE,136,8.0,8.0,69,0.00,,,1.50,,2013-06-30 17:43:00,
2013-06-30 13:52:00,85.0,75.0,29.87,SSE,166,9.0,9.0,72,0.00,,,1.50,,2013-06-30 17:52:00,
2013-06-30 14:02:00,85.0,74.0,29.86,SSW,200,6.0,14.0,70,0.00,,,1.50,,2013-06-30 18:02:00,
2013-06-30 14:12:00,86.0,72.0,29.86,South,184,10.0,10.0,64,0.00,,,1.50,,2013-06-30 18:12:00,
2013-06-30 14:22:00,87.0,73.0,29.86,SW,215,8.0,8.0,63,0.00,,,1.50,,2013-06-30 18:22:00,
2013-06-30 14:34:00,87.0,74.0,29.86,SSW,201,11.0,11.0,66,0.00,,,1.50,,2013-06-30 18:34:00,
2013-06-30 14:43:00,87.0,72.0,29.85,SSE,160,11.0,11.0,61,0.00,,,1.50,,2013-06-30 18:43:00,
2013-06-30 14:53:00,88.0,72.0,29.85,South,176,9.0,16.0,60,0.00,,,1.50,,2013-06-30 18:53:00,
2013-06-30 15:01:00,87.0,74.0,29.84,SW,214,10.0,11.0,65,0.00,,,1.50,,2013-06-30 19:01:00,
2013-06-30 15:11:00,88.0,74.0,29.85,ESE,114,10.0,10.0,64,0.00,,,1.50,,2013-06-30 19:11:00,
2013-06-30 15:22:00,88.0,73.0,29.85,SSE,156,14.0,14.0,62,0.00,,,1.50,,2013-06-30 19:22:00,
2013-06-30 15:33:00,86.0,75.0,29.85,SSW,212,9.0,9.0,70,0.00,,,1.50,,2013-06-30 19:33:00,
2013-06-30 15:43:00,84.0,76.0,29.85,SSE,166,8.0,8.0,77,0.00,,,1.50,,2013-06-30 19:43:00,
2013-06-30 15:53:00,84.0,75.0,29.86,South,188,7.0,9.0,74,0.00,,,1.50,,2013-06-30 19:53:00,
2013-06-30 16:02:00,84.0,74.0,29.85,South,176,9.0,9.0,73,0.00,,,1.50,,2013-06-30 20:02:00,
2013-06-30 16:11:00,83.0,75.0,29.85,South,176,6.0,8.0,77,0.30,,,1.50,,2013-06-30 20:11:00,
2013-06-30 16:22:00,83.0,75.0,29.86,SSW,203,5.0,5.0,76,0.30,,,1.50,,2013-06-30 20:22:00,
2013-06-30 16:34:00,83.0,74.0,29.86,East,101,4.0,6.0,75,0.30,,,1.50,,2013-06-30 20:34:00,
2013-06-30 16:42:00,83.0,74.0,29.87,SSE,162,9.0,9.0,75,0.30,,,1.50,,2013-06-30 20:42:00,
2013-06-30 16:52:00,83.0,73.0,29.87,SSE,162,8.0,8.0,73,0.30,,,1.50,,2013-06-30 20:52:00,
2013-06-30 17:01:00,83.0,73.0,29.86,South,180,12.0,12.0,72,0.30,,,1.50,,2013-06-30 21:01:00,
2013-06-30 17:11:00,83.0,73.0,29.87,West,259,4.0,4.0,73,0.00,,,1.50,,2013-06-30 21:11:00,
2013-06-30 17:22:00,82.0,74.0,29.87,NNW,335,0.0,4.0,77,0.00,,,1.50,,2013-06-30 21:22:00,
2013-06-30 17:34:00,82.0,74.0,29.87,South,191,7.0,7.0,76,0.00,,,1.50,,2013-06-30 21:34:00,
2013-06-30 17:43:00,83.0,74.0,29.87,SSW,200,8.0,8.0,74,0.00,,,1.50,,2013-06-30 21:43:00,
2013-06-30 17:53:00,83.0,74.0,29.87,SSW,194,8.0,8.0,74,0.00,,,1.50,,2013-06-30 21:53:00,
2013-06-30 18:01:00,82.0,74.0,29.87,East,98,0.0,0.0,78,0.00,,,1.50,,2013-06-30 22:01:00,
2013-06-30 18:11:00,82.0,74.0,29.86,SW,215,4.0,6.0,76,0.00,,,1.50,,2013-06-30 22:11:00,
2013-06-30 18:34:00,83.0,74.0,29.86,SSE,148,9.0,9.0,75,0.00,,,1.50,,2013-06-30 22:34:00,
2013-06-30 18:43:00,83.0,74.0,29.85,SE,132,5.0,6.0,74,0.00,,,1.50,,2013-06-30 22:43:00,
2013-06-30 19:02:00,83.0,74.0,29.86,South,179,8.0,8.0,74,0.00,,,1.50,,2013-06-30 23:02:00,
2013-06-30 19:11:00,81.0,71.0,29.87,West,260,5.0,5.0,72,0.00,,,1.50,,2013-06-30 23:11:00,
2013-06-30 19:22:00,80.0,71.0,29.87,SSW,201,2.0,2.0,75,0.00,,,1.50,,2013-06-30 23:22:00,
2013-06-30 19:33:00,80.0,72.0,29.87,SW,231,1.0,0.0,76,0.00,,,1.50,,2013-06-30 23:33:00,
2013-06-30 19:43:00,80.0,72.0,29.87,SSW,207,7.0,7.0,78,0.00,,,1.50,,2013-06-30 23:43:00,
2013-06-30 19:53:00,82.0,74.0,29.87,SSW,200,5.0,8.0,77,0.00,,,1.50,,2013-06-30 23:53:00,
2013-06-30 20:01:00,82.0,74.0,29.88,SW,219,7.0,10.0,76,0.00,,,1.50,,2013-07-01 00:01:00,
2013-06-30 20:11:00,83.0,75.0,29.88,SSE,166,8.0,8.0,76,0.00,,,1.50,,2013-07-01 00:11:00,
2013-06-30 20:22:00,82.0,73.0,29.88,SSW,204,8.0,8.0,75,0.00,,,1.50,,2013-07-01 00:22:00,
2013-06-30 20:33:00,82.0,74.0,29.88,South,179,7.0,7.0,78,0.00,,,1.50,,2013-07-01 00:33:00,
2013-06-30 20:42:00,80.0,74.0,29.90,SW,235,4.0,4.0,83,0.00,,,1.50,,2013-07-01 00:42:00,
2013-06-30 20:52:00,79.0,75.0,29.91,SW,215,2.0,3.0,87,0.00,,,1.50,,2013-07-01 00:52:00,
2013-06-30 21:01:00,78.0,74.0,29.91,SW,215,4.0,4.0,87,0.00,,,1.50,,2013-07-01 01:01:00,
2013-06-30 21:11:00,78.0,74.0,29.90,SSW,212,4.0,4.0,87,0.00,,,1.50,,2013-07-01 01:11:00,
2013-06-30 21:22:00,78.0,74.0,29.90,SW,214,2.0,0.0,87,0.00,,,1.50,,2013-07-01 01:22:00,
2013-06-30 21:33:00,78.0,74.0,29.91,WSW,250,0.0,0.0,88,0.10,,,1.50,,2013-07-01 01:33:00,
2013-06-30 21:42:00,78.0,74.0,29.91,South,181,5.0,5.0,88,0.10,,,1.50,,2013-07-01 01:42:00,
2013-06-30 21:52:00,79.0,74.0,29.91,SSW,200,6.0,6.0,86,0.10,,,1.50,,2013-07-01 01:52:00,
2013-06-30 22:02:00,78.0,73.0,29.91,SW,217,4.0,5.0,84,0.10,,,1.50,,2013-07-01 02:02:00,
2013-06-30 22:12:00,78.0,73.0,29.91,WSW,255,5.0,5.0,84,0.10,,,1.50,,2013-07-01 02:12:00,
2013-06-30 22:22:00,79.0,74.0,29.91,SSW,204,2.0,2.0,84,0.00,,,1.50,,2013-07-01 02:22:00,
2013-06-30 22:44:00,79.0,74.0,29.91,WSW,238,1.0,0.0,85,0.00,,,1.50,,2013-07-01 02:44:00,
2013-06-30 22:53:00,79.0,74.0,29.92,SW,225,2.0,3.0,86,0.00,,,1.50,,2013-07-01 02:53:00,
2013-06-30 23:01:00,79.0,74.0,29.93,SSE,165,0.0,0.0,86,0.00,,,1.50,,2013-07-01 03:01:00,
2013-06-30 23:11:00,78.0,74.0,29.92,SW,229,2.0,2.0,87,0.00,,,1.50,,2013-07-01 03:11:00,
2013-06-30 23:23:00,79.0,75.0,29.92,SSW,193,2.0,2.0,87,0.00,,,1.50,,2013-07-01 03:23:00,
2013-06-30 23:33:00,79.0,75.0,29.92,SSE,167,2.0,3.0,87,0.00,,,1.50,,2013-07-01 03:33:00,
2013-06-30 23:43:00,79.0,75.0,29.92,South,180,0.0,0.0,87,0.00,,,1.50,,2013-07-01 03:43:00,
2013-06-30 23:52:00,79.0,75.0,29.92,WSW,255,2.0,4.0,87,0.00,,,1.50,,2013-07-01 03:52:00,